Terminal Aerodrome Forecast
Issued by NWS Quad Cities IA IL

Home | Current Version | Previous Version | Text Only | Print | Product List | Glossary On
Versions: 1 2 3 4 5 6 7 8 9 10 11 12 13 14 15 16 17
000
FTUS43 KDVN 201737 CCB
TAFMLI
TAF COR
KMLI 201737Z 2018/2118 15014KT P6SM OVC080
     FM202200 17013KT 5SM SHRA VCTS BKN025CB
     FM210200 22010KT 4SM -RA BR BKN010
     FM210600 23008KT 6SM BR BKN050
     FM211000 30006KT 2SM BR OVC010=

USA.gov is the U.S. government's official web portal to all federal, state and local government web resources and services.